Time;durP1;ratioP1;P1;durP2;ratioP2;P2;SDS_P1;SDS_P2;PMS_P1;PMS_P2;Temp;Humidity;BMP_temperature;BMP_pressure;BME280_temperature;BME280_humidity;BME280_pressure;Samples;Min_cycle;Max_cycle;Signal;HPM_P1;HPM_P2
2022/09/03 00:01:13;;;;;;;0.82;0.60;;;16.90;85.90;;;;;;4999088;28;20038;-87
2022/09/03 00:03:49;;;;;;;1.20;0.82;;;16.90;86.10;;;;;;4981215;28;20493;-87
2022/09/03 00:06:30;;;;;;;1.80;0.90;;;16.90;85.90;;;;;;4979252;28;20081;-87
2022/09/03 00:09:08;;;;;;;0.80;0.70;;;16.80;85.70;;;;;;4978801;28;20054;-87
2022/09/03 00:11:59;;;;;;;1.85;0.82;;;16.80;85.70;;;;;;4962692;28;20046;-87
2022/09/03 00:14:36;;;;;;;1.05;0.68;;;16.80;85.80;;;;;;4980630;28;20392;-87
2022/09/03 00:17:08;;;;;;;3.85;0.80;;;16.80;86.30;;;;;;4992826;28;20428;-87
2022/09/03 00:19:45;;;;;;;1.55;0.80;;;16.70;86.50;;;;;;4982102;28;20499;-87
2022/09/03 00:22:23;;;;;;;1.00;0.75;;;16.60;86.30;;;;;;4998308;28;20050;-87
2022/09/03 00:24:50;;;;;;;1.75;0.90;;;16.60;87.00;;;;;;4998286;28;20484;-87
2022/09/03 00:27:26;;;;;;;1.80;0.90;;;16.50;86.70;;;;;;4998411;28;20131;-87
2022/09/03 00:30:11;;;;;;;1.02;0.70;;;16.40;87.30;;;;;;4998178;28;20041;-87
2022/09/03 00:32:49;;;;;;;1.67;0.70;;;16.40;87.60;;;;;;4981962;28;20060;-87
2022/09/03 00:35:27;;;;;;;2.00;1.00;;;16.30;87.80;;;;;;4981905;28;20038;-82
2022/09/03 00:37:57;;;;;;;0.98;0.50;;;16.20;88.00;;;;;;4989888;28;20119;-82
2022/09/03 00:40:25;;;;;;;2.40;1.02;;;16.20;88.00;;;;;;5015067;28;20046;-82
2022/09/03 00:43:07;;;;;;;0.75;0.68;;;16.10;88.30;;;;;;5014675;28;20054;-82
2022/09/03 00:45:38;;;;;;;1.80;0.80;;;16.10;89.00;;;;;;5013573;28;20042;-82
2022/09/03 00:48:22;;;;;;;1.23;0.70;;;16.10;88.50;;;;;;4999004;28;20468;-82
2022/09/03 00:50:48;;;;;;;1.42;0.80;;;16.10;88.30;;;;;;4998455;28;20044;-87
2022/09/03 00:53:40;;;;;;;2.75;1.00;;;16.00;88.70;;;;;;4981454;28;20125;-87
2022/09/03 00:56:20;;;;;;;0.85;0.73;;;15.90;89.00;;;;;;4981145;28;20029;-88
2022/09/03 00:59:17;;;;;;;0.90;0.70;;;15.90;88.90;;;;;;4990683;28;20045;-87
2022/09/03 01:01:49;;;;;;;;;;;15.90;89.40;;;;;;4998039;28;20484;-86
2022/09/03 01:05:00;;;;;;;0.93;0.70;;;15.80;89.90;;;;;;4997292;28;19925;-86
2022/09/03 01:07:50;;;;;;;1.73;0.82;;;15.80;89.60;;;;;;4967274;28;20385;-82
2022/09/03 01:10:37;;;;;;;1.63;0.80;;;15.70;90.10;;;;;;4981237;28;20050;-82
2022/09/03 01:13:18;;;;;;;1.88;0.93;;;15.60;90.20;;;;;;4997050;28;20046;-82
2022/09/03 01:16:00;;;;;;;1.48;0.95;;;15.60;90.20;;;;;;4980992;28;20045;-82
2022/09/03 01:18:26;;;;;;;1.70;0.90;;;15.60;90.30;;;;;;4997586;28;20056;-82
2022/09/03 01:21:08;;;;;;;1.08;0.70;;;15.50;90.50;;;;;;4997159;28;20046;-82
2022/09/03 01:24:16;;;;;;;1.45;1.00;;;15.50;90.30;;;;;;4980248;28;20051;-82
2022/09/03 01:27:04;;;;;;;3.30;1.10;;;15.50;90.70;;;;;;4980793;28;20045;-82
2022/09/03 01:29:52;;;;;;;1.58;0.85;;;15.50;90.50;;;;;;4961316;28;20050;-82
2022/09/03 01:32:49;;;;;;;0.65;0.63;;;15.50;90.60;;;;;;4967964;28;20037;-82
2022/09/03 01:35:25;;;;;;;3.22;0.75;;;15.40;90.60;;;;;;4996864;28;20046;-82
2022/09/03 01:38:00;;;;;;;;;;;15.40;90.70;;;;;;5004469;28;20037;-82
2022/09/03 01:40:49;;;;;;;4.00;1.20;;;15.40;90.80;;;;;;5013386;28;19917;-86
2022/09/03 01:43:31;;;;;;;1.92;0.93;;;15.40;90.90;;;;;;5013245;28;20081;-86
2022/09/03 01:46:34;;;;;;;0.55;0.55;;;15.40;90.80;;;;;;4996481;28;20074;-86
2022/09/03 01:49:22;;;;;;;0.75;0.73;;;15.40;91.00;;;;;;4994003;28;20073;-87
2022/09/03 01:52:02;;;;;;;2.60;0.95;;;15.40;90.70;;;;;;4961175;28;20401;-87
2022/09/03 01:54:51;;;;;;;5.50;0.80;;;15.40;90.80;;;;;;4961385;28;20050;-87
2022/09/03 01:58:05;;;;;;;6.47;1.10;;;15.40;90.60;;;;;;4978841;28;20035;-82
2022/09/03 02:00:33;;;;;;;0.98;0.70;;;15.50;90.50;;;;;;4976674;28;20081;-82
2022/09/03 02:03:04;;;;;;;1.38;0.88;;;15.50;90.80;;;;;;4945603;28;20038;-82
2022/09/03 02:05:30;;;;;;;1.38;0.90;;;15.50;90.60;;;;;;4961124;28;20050;-82
2022/09/03 02:07:59;;;;;;;1.67;0.90;;;15.40;90.90;;;;;;4960893;28;20066;-82
2022/09/03 02:10:33;;;;;;;3.17;0.70;;;15.40;90.80;;;;;;4977920;28;20050;-82
2022/09/03 02:13:28;;;;;;;1.98;0.80;;;15.40;90.80;;;;;;4984654;28;20045;-82
2022/09/03 02:15:58;;;;;;;2.30;0.70;;;15.40;91.20;;;;;;4995607;28;20050;-82
2022/09/03 02:18:35;;;;;;;0.98;0.88;;;15.30;91.10;;;;;;4995825;28;20056;-82
2022/09/03 02:21:01;;;;;;;3.42;1.00;;;15.30;91.40;;;;;;4996657;28;20080;-82
2022/09/03 02:23:27;;;;;;;0.70;0.50;;;15.30;91.00;;;;;;4996497;28;20046;-82
2022/09/03 02:26:02;;;;;;;1.02;0.70;;;15.30;91.40;;;;;;4996561;28;20045;-82
2022/09/03 02:28:30;;;;;;;2.63;1.60;;;15.20;91.30;;;;;;4995992;28;20128;-82
2022/09/03 02:30:57;;;;;;;1.42;0.88;;;15.20;91.30;;;;;;4979668;28;20034;-82
2022/09/03 02:33:23;;;;;;;3.30;0.77;;;15.10;91.50;;;;;;4996159;28;20081;-82
2022/09/03 02:35:49;;;;;;;0.73;0.63;;;15.00;92.00;;;;;;4980546;28;20371;-82
2022/09/03 02:38:18;;;;;;;0.82;0.82;;;15.00;91.90;;;;;;4996769;28;20434;-82
2022/09/03 02:40:44;;;;;;;0.95;0.88;;;15.00;91.90;;;;;;4980180;28;20121;-82
2022/09/03 02:43:41;;;;;;;1.15;0.90;;;14.90;92.30;;;;;;4973919;28;20132;-82
2022/09/03 02:46:13;;;;;;;1.27;0.93;;;14.90;92.30;;;;;;4980289;28;20046;-82
2022/09/03 02:48:39;;;;;;;1.08;0.88;;;14.80;92.20;;;;;;4996126;28;20551;-86
2022/09/03 02:51:05;;;;;;;1.23;0.70;;;14.80;92.60;;;;;;4995601;28;20124;-86
2022/09/03 02:53:30;;;;;;;1.83;1.10;;;14.80;92.40;;;;;;4995377;28;20152;-86
2022/09/03 02:55:58;;;;;;;1.63;0.80;;;14.80;92.50;;;;;;4996127;28;20042;-86
2022/09/03 02:58:25;;;;;;;0.88;0.80;;;14.80;92.70;;;;;;4980059;28;20042;-86
2022/09/03 03:00:51;;;;;;;1.20;0.70;;;14.70;92.90;;;;;;4979037;28;20038;-87
2022/09/03 03:03:17;;;;;;;1.65;1.10;;;14.70;92.80;;;;;;4995710;28;20041;-86
2022/09/03 03:05:46;;;;;;;0.70;0.60;;;14.70;92.90;;;;;;4996120;28;20049;-87
2022/09/03 03:08:13;;;;;;;0.77;0.70;;;14.70;93.10;;;;;;4995776;28;20415;-87
2022/09/03 03:10:45;;;;;;;0.93;0.70;;;14.70;93.00;;;;;;4963933;28;20488;-87
2022/09/03 03:13:11;;;;;;;0.88;0.63;;;14.70;92.90;;;;;;4979482;28;20042;-87
2022/09/03 03:15:37;;;;;;;1.80;1.00;;;14.70;93.20;;;;;;4996069;28;20440;-87
2022/09/03 03:18:03;;;;;;;1.23;0.90;;;14.70;93.10;;;;;;4996067;28;20392;-87
2022/09/03 03:20:29;;;;;;;1.30;0.75;;;14.70;93.10;;;;;;4963559;28;20038;-87
2022/09/03 03:22:54;;;;;;;0.80;0.73;;;14.70;93.10;;;;;;4979386;28;20482;-87
2022/09/03 03:25:20;;;;;;;0.80;0.80;;;14.80;93.20;;;;;;4979734;28;20042;-87
2022/09/03 03:27:46;;;;;;;3.60;0.80;;;14.80;93.20;;;;;;4979790;28;20133;-87
2022/09/03 03:30:12;;;;;;;1.67;1.10;;;14.80;93.40;;;;;;4979733;28;20522;-87
2022/09/03 03:32:38;;;;;;;2.15;0.90;;;14.80;93.10;;;;;;4995414;28;20042;-87
2022/09/03 03:35:05;;;;;;;1.33;0.95;;;14.80;93.10;;;;;;4995193;28;20049;-87
2022/09/03 03:37:32;;;;;;;2.30;0.80;;;14.80;93.40;;;;;;4980437;28;20117;-87
2022/09/03 03:39:58;;;;;;;1.77;0.88;;;14.80;93.10;;;;;;4977881;28;20080;-86
2022/09/03 03:42:24;;;;;;;1.67;0.93;;;14.80;93.70;;;;;;4986743;28;20050;-86
2022/09/03 03:44:50;;;;;;;1.23;0.90;;;14.70;93.40;;;;;;4982495;28;20048;-86
2022/09/03 03:47:17;;;;;;;1.10;0.77;;;14.70;93.30;;;;;;4982722;28;20052;-86
2022/09/03 03:49:43;;;;;;;0.98;0.70;;;14.80;93.40;;;;;;4982807;28;20049;-86
2022/09/03 03:52:09;;;;;;;1.60;1.00;;;14.80;93.70;;;;;;4982659;28;20052;-87
2022/09/03 03:54:35;;;;;;;1.13;0.75;;;14.80;93.30;;;;;;4998983;28;20038;-87
2022/09/03 03:57:01;;;;;;;3.80;0.90;;;14.80;93.50;;;;;;4982722;28;20081;-87
2022/09/03 03:59:26;;;;;;;2.60;0.85;;;14.70;93.60;;;;;;4982410;28;20041;-87
2022/09/03 04:01:55;;;;;;;2.13;0.80;;;14.80;93.80;;;;;;4966287;28;20052;-87
2022/09/03 04:04:21;;;;;;;1.23;0.55;;;14.80;93.60;;;;;;4982315;28;20041;-87
2022/09/03 04:06:57;;;;;;;2.25;0.85;;;14.80;93.50;;;;;;4998478;28;20045;-87
2022/09/03 04:09:22;;;;;;;1.58;0.88;;;14.80;93.60;;;;;;4964469;28;20488;-81
2022/09/03 04:11:49;;;;;;;1.92;1.00;;;14.80;93.60;;;;;;4977958;28;20046;-83
2022/09/03 04:14:16;;;;;;;1.60;0.68;;;14.80;93.70;;;;;;4979188;28;20486;-83
2022/09/03 04:16:45;;;;;;;2.45;1.00;;;14.80;93.80;;;;;;4990274;28;20121;-84
2022/09/03 04:19:12;;;;;;;1.80;1.00;;;14.90;93.60;;;;;;4984228;28;20440;-84
2022/09/03 04:21:38;;;;;;;2.00;0.90;;;14.90;93.50;;;;;;4979260;28;20080;-83
2022/09/03 04:24:05;;;;;;;1.15;1.00;;;14.90;93.30;;;;;;4978681;28;20038;-84
2022/09/03 04:26:32;;;;;;;1.75;1.15;;;14.90;93.60;;;;;;4978993;28;20473;-84
2022/09/03 04:29:07;;;;;;;1.17;0.90;;;14.90;93.50;;;;;;4978192;28;20057;-84
2022/09/03 04:31:33;;;;;;;1.48;1.08;;;14.90;93.30;;;;;;4969682;28;20046;-83
2022/09/03 04:33:59;;;;;;;2.85;0.85;;;14.90;93.70;;;;;;4977915;28;20049;-83
2022/09/03 04:36:27;;;;;;;0.90;0.80;;;14.90;93.60;;;;;;4979107;28;20043;-84
2022/09/03 04:38:54;;;;;;;1.10;0.88;;;14.90;93.30;;;;;;4977368;28;20420;-83
2022/09/03 04:41:23;;;;;;;2.38;1.20;;;14.90;93.70;;;;;;4994860;28;20049;-84
2022/09/03 04:43:50;;;;;;;1.33;1.00;;;14.80;93.60;;;;;;4978495;28;20038;-82
2022/09/03 04:46:16;;;;;;;1.05;0.82;;;14.80;93.60;;;;;;4962470;28;20046;-82
2022/09/03 04:48:42;;;;;;;1.02;0.77;;;14.80;93.70;;;;;;4994692;28;20041;-82
2022/09/03 04:51:13;;;;;;;2.65;0.82;;;14.80;93.80;;;;;;4977058;28;20030;-82
2022/09/03 04:53:45;;;;;;;3.20;0.90;;;14.70;93.60;;;;;;4978183;28;20053;-82
2022/09/03 04:56:22;;;;;;;1.90;0.95;;;14.70;93.90;;;;;;4978509;28;20043;-81
2022/09/03 04:58:54;;;;;;;1.52;1.05;;;14.70;93.70;;;;;;4978745;28;20065;-81
2022/09/03 05:01:21;;;;;;;4.15;0.88;;;14.60;94.30;;;;;;4969034;28;20374;-81
2022/09/03 05:03:47;;;;;;;1.95;0.93;;;14.60;94.10;;;;;;4978252;28;20090;-81
2022/09/03 05:06:15;;;;;;;1.33;0.95;;;14.60;94.10;;;;;;4978659;28;20038;-81
2022/09/03 05:08:42;;;;;;;2.35;1.20;;;14.50;94.30;;;;;;4962091;28;20050;-81
2022/09/03 05:11:08;;;;;;;2.60;1.02;;;14.50;94.40;;;;;;4977742;28;20042;-81
2022/09/03 05:13:38;;;;;;;0.98;0.75;;;14.40;94.70;;;;;;4977719;28;20074;-81
2022/09/03 05:16:07;;;;;;;1.10;0.90;;;14.50;94.60;;;;;;4978043;28;20070;-81
2022/09/03 05:18:36;;;;;;;1.00;0.90;;;14.50;94.70;;;;;;4977897;28;20038;-83
2022/09/03 05:21:04;;;;;;;1.30;1.02;;;14.50;94.70;;;;;;4961638;28;20105;-84
2022/09/03 05:23:31;;;;;;;1.67;1.00;;;14.50;94.80;;;;;;4977371;28;20101;-83
2022/09/03 05:26:02;;;;;;;1.20;0.80;;;14.50;94.80;;;;;;4978082;28;20050;-83
2022/09/03 05:28:29;;;;;;;1.40;0.90;;;14.60;94.90;;;;;;4961785;28;20049;-83
2022/09/03 05:31:15;;;;;;;3.97;1.17;;;14.60;94.80;;;;;;4966933;28;20042;-83
2022/09/03 05:33:46;;;;;;;1.15;0.82;;;14.60;94.90;;;;;;4976896;28;20046;-83
2022/09/03 05:36:14;;;;;;;3.03;1.05;;;14.70;94.70;;;;;;4977783;28;20042;-84
2022/09/03 05:38:41;;;;;;;2.15;1.13;;;14.70;94.80;;;;;;4976420;28;20038;-83
2022/09/03 05:41:09;;;;;;;1.55;1.15;;;14.70;94.60;;;;;;4977547;28;20046;-84
2022/09/03 05:43:35;;;;;;;1.60;1.00;;;14.80;94.40;;;;;;4965029;28;20053;-84
2022/09/03 05:46:04;;;;;;;1.63;1.10;;;14.90;94.60;;;;;;4958455;28;20130;-84
2022/09/03 05:48:30;;;;;;;2.15;1.40;;;14.90;94.60;;;;;;4958193;28;20131;-84
2022/09/03 05:51:12;;;;;;;2.28;1.20;;;15.00;94.40;;;;;;4972242;28;20053;-83
2022/09/03 05:53:39;;;;;;;3.92;1.25;;;15.10;94.60;;;;;;4976879;28;20038;-83
2022/09/03 05:56:11;;;;;;;2.75;1.02;;;15.10;94.30;;;;;;4977526;28;20046;-83
2022/09/03 05:58:43;;;;;;;1.33;1.00;;;15.20;94.50;;;;;;4977903;28;20038;-83
2022/09/03 06:01:14;;;;;;;3.53;1.30;;;15.30;94.70;;;;;;4970356;28;20041;-83
2022/09/03 06:03:42;;;;;;;3.53;1.13;;;15.30;94.00;;;;;;4977107;28;20477;-83
2022/09/03 06:06:08;;;;;;;4.30;1.58;;;15.40;93.80;;;;;;4977172;28;20049;-83
2022/09/03 06:08:34;;;;;;;1.90;1.10;;;15.50;93.80;;;;;;4976854;28;20061;-81
2022/09/03 06:11:03;;;;;;;1.77;1.15;;;15.60;93.70;;;;;;4976894;28;20061;-81
2022/09/03 06:13:29;;;;;;;3.95;3.00;;;15.80;93.50;;;;;;4977123;28;20045;-81
2022/09/03 06:15:56;;;;;;;3.58;1.05;;;15.90;93.50;;;;;;4976709;28;20045;-81
2022/09/03 06:18:23;;;;;;;2.65;1.23;;;16.00;93.20;;;;;;4976706;28;20061;-81
2022/09/03 06:20:57;;;;;;;2.67;1.08;;;16.20;92.80;;;;;;4977039;28;20030;-81
2022/09/03 06:23:24;;;;;;;2.38;1.40;;;16.30;92.60;;;;;;4976521;28;20045;-81
2022/09/03 06:26:09;;;;;;;1.30;1.10;;;16.50;92.10;;;;;;4977285;28;20465;-86
2022/09/03 06:28:37;;;;;;;2.65;1.27;;;17.20;91.80;;;;;;4976928;28;20105;-86
2022/09/03 06:31:05;;;;;;;1.65;1.20;;;17.50;90.60;;;;;;4976886;28;20404;-86
2022/09/03 06:33:33;;;;;;;1.55;1.15;;;18.60;89.70;;;;;;4976878;28;20476;-86
2022/09/03 06:35:59;;;;;;;1.63;0.90;;;19.60;87.20;;;;;;4977080;28;20050;-86
2022/09/03 06:38:27;;;;;;;1.95;1.10;;;20.90;83.60;;;;;;4975326;28;20042;-86
2022/09/03 06:41:02;;;;;;;2.45;1.30;;;21.90;81.60;;;;;;4960416;28;20038;-86
2022/09/03 06:43:30;;;;;;;3.80;1.40;;;22.80;79.60;;;;;;4977316;28;20503;-86
2022/09/03 06:46:04;;;;;;;1.38;0.93;;;23.60;76.70;;;;;;4976555;28;20100;-86
2022/09/03 06:48:32;;;;;;;1.15;0.98;;;23.50;75.90;;;;;;4976581;28;20097;-86
2022/09/03 06:51:00;;;;;;;1.58;1.13;;;24.20;74.60;;;;;;4977036;28;20042;-86
2022/09/03 06:53:28;;;;;;;1.55;0.90;;;25.00;74.00;;;;;;4976817;28;20034;-86
2022/09/03 06:55:55;;;;;;;2.83;1.30;;;25.00;72.80;;;;;;4976949;28;20042;-86
2022/09/03 06:58:22;;;;;;;3.90;1.00;;;24.70;71.70;;;;;;4977053;28;20026;-82
2022/09/03 07:00:48;;;;;;;1.55;1.20;;;24.60;72.40;;;;;;4970533;28;20049;-82
2022/09/03 07:03:16;;;;;;;2.17;1.17;;;24.60;72.80;;;;;;4957457;28;20069;-82
2022/09/03 07:05:43;;;;;;;2.17;1.10;;;24.40;72.00;;;;;;4957353;28;20050;-82
2022/09/03 07:08:09;;;;;;;0.82;0.80;;;24.10;71.30;;;;;;4975561;28;20168;-82
2022/09/03 07:10:38;;;;;;;10.10;1.38;;;24.60;72.30;;;;;;4976557;28;20058;-82
2022/09/03 07:13:07;;;;;;;1.50;1.00;;;24.90;71.80;;;;;;4963750;28;20077;-83
2022/09/03 07:15:33;;;;;;;1.77;0.85;;;25.90;70.70;;;;;;4964673;28;20401;-86
2022/09/03 07:17:59;;;;;;;1.15;0.88;;;25.90;70.30;;;;;;4980050;28;20034;-86
2022/09/03 07:20:25;;;;;;;1.40;1.10;;;26.40;70.20;;;;;;4973324;28;20129;-86
2022/09/03 07:22:54;;;;;;;1.17;1.08;;;26.70;68.20;;;;;;4995802;28;20117;-86
2022/09/03 07:25:21;;;;;;;3.05;1.05;;;26.80;68.00;;;;;;4961638;28;20050;-86
2022/09/03 07:27:49;;;;;;;1.52;1.00;;;26.70;68.90;;;;;;4943547;28;20082;-86
2022/09/03 07:30:16;;;;;;;1.13;0.90;;;26.90;68.30;;;;;;4962561;28;20038;-83
2022/09/03 07:32:41;;;;;;;2.40;0.93;;;27.20;67.90;;;;;;4978699;28;20121;-82
2022/09/03 07:35:10;;;;;;;1.48;0.88;;;27.70;68.20;;;;;;4979258;28;20065;-82
2022/09/03 07:37:37;;;;;;;4.90;1.23;;;27.80;66.90;;;;;;4947806;28;20052;-82
2022/09/03 07:40:03;;;;;;;2.33;0.90;;;26.70;66.80;;;;;;4976800;28;20084;-84
2022/09/03 07:42:29;;;;;;;1.42;0.88;;;27.50;69.50;;;;;;4947516;28;20046;-83
2022/09/03 07:44:56;;;;;;;0.90;0.90;;;27.30;65.90;;;;;;4963373;28;20050;-83
2022/09/03 07:47:22;;;;;;;1.45;1.00;;;28.00;66.90;;;;;;4979245;28;20056;-86
2022/09/03 07:49:47;;;;;;;1.30;0.90;;;27.60;66.90;;;;;;4979482;28;20384;-86
2022/09/03 07:52:13;;;;;;;2.25;1.17;;;28.20;67.20;;;;;;4969461;28;20460;-86
2022/09/03 07:54:39;;;;;;;2.17;1.13;;;28.30;65.00;;;;;;4995993;28;20385;-86
2022/09/03 07:57:06;;;;;;;1.27;0.95;;;28.60;67.10;;;;;;4995451;28;20038;-86
2022/09/03 07:59:31;;;;;;;1.40;0.85;;;29.00;65.40;;;;;;4947308;28;20045;-86
2022/09/03 08:01:57;;;;;;;2.25;0.80;;;28.90;63.60;;;;;;4978932;28;20046;-86
2022/09/03 08:04:23;;;;;;;2.28;0.95;;;28.40;64.70;;;;;;4963678;28;20093;-83
2022/09/03 08:06:54;;;;;;;1.20;0.95;;;28.70;64.60;;;;;;4963072;28;20034;-83
2022/09/03 08:09:19;;;;;;;2.85;1.00;;;28.70;65.00;;;;;;4969534;28;20089;-82
2022/09/03 08:11:45;;;;;;;0.88;0.88;;;28.50;65.10;;;;;;4976960;28;20078;-82
2022/09/03 08:14:12;;;;;;;0.98;0.80;;;28.40;64.40;;;;;;4978776;28;20453;-83
2022/09/03 08:16:41;;;;;;;2.13;0.80;;;29.10;65.60;;;;;;4962203;28;20034;-83
2022/09/03 08:19:07;;;;;;;0.80;0.70;;;28.90;63.60;;;;;;4978638;28;20485;-83
2022/09/03 08:21:34;;;;;;;1.20;0.80;;;29.10;64.20;;;;;;4979230;28;20049;-83
2022/09/03 08:24:02;;;;;;;1.80;1.25;;;29.60;64.20;;;;;;4978351;28;20464;-83
2022/09/03 08:26:35;;;;;;;2.13;1.20;;;29.40;64.50;;;;;;4979047;28;20381;-82
2022/09/03 08:29:01;;;;;;;1.75;0.82;;;29.80;63.80;;;;;;4960140;28;20568;-83
2022/09/03 08:31:28;;;;;;;0.60;0.60;;;29.80;63.20;;;;;;4959863;28;20448;-82
2022/09/03 08:33:56;;;;;;;1.52;1.10;;;29.40;64.50;;;;;;4973125;28;20046;-83
2022/09/03 08:36:28;;;;;;;0.77;0.77;;;29.50;63.60;;;;;;4977042;28;20519;-84
2022/09/03 08:38:55;;;;;;;1.20;0.80;;;30.50;63.90;;;;;;4963166;28;20057;-87
2022/09/03 08:41:45;;;;;;;1.55;0.80;;;30.90;62.80;;;;;;4977948;28;20046;-87
2022/09/03 08:44:35;;;;;;;0.93;0.85;;;31.50;62.00;;;;;;4979289;28;20054;-87
2022/09/03 08:47:42;;;;;;;0.95;0.88;;;30.90;61.80;;;;;;4962609;28;20031;-86
2022/09/03 08:50:07;;;;;;;;;;;30.70;62.60;;;;;;4931976;28;20129;-87
2022/09/03 08:52:37;;;;;;;;;;;29.90;61.30;;;;;;4979110;28;20016;-86
2022/09/03 08:55:32;;;;;;;1.17;0.80;;;29.80;63.40;;;;;;4978576;28;20418;-84
2022/09/03 08:58:11;;;;;;;2.22;0.75;;;30.00;63.10;;;;;;4962253;28;20044;-83
2022/09/03 09:01:00;;;;;;;1.60;1.00;;;30.60;62.20;;;;;;4978534;28;20037;-83
2022/09/03 09:03:42;;;;;;;1.80;1.08;;;31.30;62.70;;;;;;4978346;28;20041;-83
2022/09/03 09:06:19;;;;;;;2.42;0.80;;;31.40;62.00;;;;;;4989335;28;20038;-84
2022/09/03 09:09:13;;;;;;;2.35;1.38;;;31.90;61.40;;;;;;4983601;28;20106;-83
2022/09/03 09:11:42;;;;;;;1.88;0.80;;;31.90;61.10;;;;;;4977596;28;20042;-84
2022/09/03 09:14:18;;;;;;;1.25;0.95;;;32.50;61.50;;;;;;4959064;28;20100;-84
2022/09/03 09:16:57;;;;;;;0.88;0.75;;;32.80;60.00;;;;;;4977611;28;20034;-83
2022/09/03 09:19:30;;;;;;;1.80;1.00;;;32.40;60.40;;;;;;4984135;28;20042;-82
2022/09/03 09:22:09;;;;;;;1.13;0.82;;;33.00;61.50;;;;;;4979618;28;20042;-83
2022/09/03 09:24:40;;;;;;;1.65;0.82;;;33.10;59.90;;;;;;4980492;28;20042;-81
2022/09/03 09:27:07;;;;;;;2.28;0.95;;;32.40;60.50;;;;;;4977022;28;20046;-82
2022/09/03 09:29:37;;;;;;;1.27;0.82;;;32.10;61.60;;;;;;4974258;28;20042;-83
2022/09/03 09:32:06;;;;;;;1.40;1.08;;;32.00;61.10;;;;;;4977276;28;20056;-84
2022/09/03 09:34:36;;;;;;;2.70;1.00;;;31.90;59.80;;;;;;4976844;28;20046;-83
2022/09/03 09:37:06;;;;;;;3.10;0.90;;;31.70;61.50;;;;;;4977242;28;20115;-83
2022/09/03 09:39:32;;;;;;;2.55;1.00;;;31.50;62.00;;;;;;4976028;28;20034;-83
2022/09/03 09:42:10;;;;;;;1.45;0.98;;;32.00;61.30;;;;;;4990703;28;20038;-83
2022/09/03 09:44:41;;;;;;;1.98;1.10;;;31.70;60.60;;;;;;4968339;28;20120;-81
2022/09/03 09:47:20;;;;;;;2.17;0.98;;;32.10;61.70;;;;;;4977461;28;20046;-81
2022/09/03 09:49:45;;;;;;;1.13;0.95;;;32.60;60.30;;;;;;4962306;28;20124;-81
2022/09/03 09:52:14;;;;;;;1.45;1.08;;;32.40;59.60;;;;;;4974879;28;20134;-81
2022/09/03 09:54:41;;;;;;;1.20;0.80;;;32.20;60.20;;;;;;4980733;28;20104;-81
2022/09/03 09:57:20;;;;;;;1.48;1.00;;;32.00;60.10;;;;;;4945512;28;20070;-81
2022/09/03 09:59:46;;;;;;;0.82;0.82;;;31.70;60.20;;;;;;4986953;28;20469;-81
2022/09/03 10:02:19;;;;;;;1.33;0.80;;;31.00;61.80;;;;;;4952982;28;20093;-81
2022/09/03 10:04:45;;;;;;;1.90;0.90;;;31.90;61.10;;;;;;4976595;28;20061;-81
2022/09/03 10:07:32;;;;;;;3.97;0.95;;;31.60;61.10;;;;;;4976984;28;20060;-81
2022/09/03 10:10:13;;;;;;;3.08;1.35;;;31.90;61.90;;;;;;4977204;28;20057;-81
2022/09/03 10:12:58;;;;;;;1.40;0.70;;;32.00;61.70;;;;;;4976742;28;20042;-81
2022/09/03 10:15:38;;;;;;;0.70;0.63;;;31.60;60.40;;;;;;4960003;28;20124;-81
2022/09/03 10:18:37;;;;;;;2.53;1.20;;;32.10;61.80;;;;;;4961024;28;20049;-83
2022/09/03 10:21:06;;;;;;;2.00;1.00;;;32.80;60.50;;;;;;4976653;28;20046;-83
2022/09/03 10:24:00;;;;;;;1.42;0.75;;;33.60;60.60;;;;;;4976481;28;20051;-84
2022/09/03 10:26:29;;;;;;;1.75;0.68;;;33.90;59.40;;;;;;4960021;28;20050;-84
2022/09/03 10:28:59;;;;;;;1.98;0.95;;;33.90;59.40;;;;;;4974729;28;20497;-84
2022/09/03 10:32:15;;;;;;;1.67;0.77;;;33.30;59.70;;;;;;4976608;28;20089;-84
2022/09/03 10:35:13;;;;;;;1.45;0.90;;;34.00;60.20;;;;;;4973941;28;20089;-82
2022/09/03 10:37:43;;;;;;;1.27;0.80;;;33.60;60.20;;;;;;4976639;28;20042;-82
2022/09/03 10:40:33;;;;;;;1.50;0.93;;;33.10;59.60;;;;;;4975530;28;20030;-82
2022/09/03 10:43:08;;;;;;;1.65;0.75;;;33.60;59.90;;;;;;4962697;28;20061;-81
2022/09/03 10:46:00;;;;;;;1.55;1.20;;;33.90;59.50;;;;;;4975878;28;20042;-81
2022/09/03 10:48:49;;;;;;;1.17;0.73;;;33.10;59.40;;;;;;4964652;28;20116;-81
2022/09/03 10:51:26;;;;;;;0.85;0.70;;;33.10;58.80;;;;;;4981314;28;20101;-81
2022/09/03 10:53:58;;;;;;;1.17;1.00;;;33.10;57.80;;;;;;4980744;28;20374;-81
2022/09/03 10:56:38;;;;;;;1.05;0.77;;;32.90;59.00;;;;;;4979432;28;20038;-81
2022/09/03 10:59:34;;;;;;;2.75;0.98;;;32.70;59.50;;;;;;4980136;28;20041;-81
2022/09/03 11:02:32;;;;;;;0.93;0.73;;;32.90;58.00;;;;;;4980018;28;20393;-81
2022/09/03 11:05:17;;;;;;;2.05;1.15;;;33.20;59.10;;;;;;4977850;28;20045;-82
2022/09/03 11:07:57;;;;;;;1.08;0.90;;;33.00;57.90;;;;;;4979930;28;20144;-83
2022/09/03 11:10:34;;;;;;;1.38;0.80;;;32.30;57.40;;;;;;4979579;28;20047;-84
2022/09/03 11:13:20;;;;;;;1.30;0.85;;;31.50;58.70;;;;;;4978519;28;20069;-84
2022/09/03 11:16:00;;;;;;;1.70;0.88;;;31.60;59.60;;;;;;4976171;28;20065;-83
2022/09/03 11:18:44;;;;;;;0.93;0.75;;;32.30;59.00;;;;;;4978869;28;20053;-83
2022/09/03 11:21:13;;;;;;;1.00;0.80;;;32.00;59.80;;;;;;4960338;28;20730;-84
2022/09/03 11:23:57;;;;;;;1.90;0.90;;;32.40;59.20;;;;;;4975703;23;20090;-82
2022/09/03 11:26:25;;;;;;;1.55;0.70;;;32.30;58.30;;;;;;5003429;28;20051;-81
2022/09/03 11:29:00;;;;;;;1.00;0.90;;;32.80;58.80;;;;;;4954308;28;20039;-81
2022/09/03 11:31:30;;;;;;;1.17;0.88;;;32.80;57.20;;;;;;4960763;28;20134;-81
2022/09/03 11:34:00;;;;;;;1.50;0.63;;;32.90;57.40;;;;;;4980020;28;20047;-81
2022/09/03 11:36:35;;;;;;;1.38;1.00;;;33.40;59.20;;;;;;4975969;28;20042;-81
2022/09/03 11:39:22;;;;;;;1.42;0.77;;;33.00;58.40;;;;;;4975181;28;20041;-81
2022/09/03 11:42:06;;;;;;;0.82;0.70;;;32.40;56.70;;;;;;4956669;29;20051;-83
2022/09/03 11:44:38;;;;;;;0.75;0.70;;;32.00;57.50;;;;;;4988310;28;20489;-83
2022/09/03 11:47:21;;;;;;;0.73;0.60;;;32.00;57.60;;;;;;4973276;28;20456;-84
2022/09/03 11:49:52;;;;;;;0.73;0.70;;;32.80;59.30;;;;;;4976208;28;20362;-84
2022/09/03 11:52:26;;;;;;;1.15;0.90;;;32.70;57.80;;;;;;4992145;28;20050;-84
2022/09/03 11:54:52;;;;;;;1.02;0.73;;;32.20;58.80;;;;;;4990025;28;20038;-84
2022/09/03 11:57:32;;;;;;;1.85;0.70;;;32.20;57.10;;;;;;4991236;28;20039;-82
2022/09/03 12:00:11;;;;;;;2.88;0.90;;;31.80;57.90;;;;;;4976028;28;20129;-81
2022/09/03 12:02:46;;;;;;;0.63;0.63;;;31.70;56.90;;;;;;4976132;28;20051;-81
2022/09/03 12:05:31;;;;;;;;;;;31.20;56.40;;;;;;4968501;28;20050;-81
2022/09/03 12:07:59;;;;;;;6.38;0.82;;;31.50;57.20;;;;;;4990496;28;19954;-81
2022/09/03 12:10:44;;;;;;;0.90;0.80;;;31.30;58.70;;;;;;4975774;28;20046;-81
2022/09/03 12:13:35;;;;;;;1.08;0.77;;;31.20;58.40;;;;;;4992198;28;20073;-81
2022/09/03 12:16:48;;;;;;;1.55;1.05;;;31.00;57.40;;;;;;4977385;28;20035;-82
2022/09/03 12:19:36;;;;;;;2.40;1.00;;;31.10;59.00;;;;;;4863755;29;20041;-82
2022/09/03 12:22:04;;;;;;;1.17;0.95;;;30.40;58.00;;;;;;4863917;29;20048;-82
2022/09/03 12:24:36;;;;;;;2.50;0.70;;;30.20;57.90;;;;;;4912156;29;20102;-82
2022/09/03 12:27:03;;;;;;;0.73;0.73;;;30.20;58.50;;;;;;4984127;28;20089;-81
2022/09/03 12:29:30;;;;;;;2.15;0.75;;;30.00;59.60;;;;;;4974888;28;20042;-82
2022/09/03 12:32:06;;;;;;;0.70;0.70;;;30.00;58.40;;;;;;5007825;28;20047;-84
2022/09/03 12:34:31;;;;;;;0.60;0.60;;;30.00;58.60;;;;;;4992071;28;20584;-83
2022/09/03 12:36:57;;;;;;;0.85;0.80;;;29.70;58.30;;;;;;4968407;28;20120;-83
2022/09/03 12:39:25;;;;;;;1.25;0.90;;;30.10;58.80;;;;;;4982742;28;20053;-84
2022/09/03 12:41:53;;;;;;;2.55;1.08;;;30.00;58.40;;;;;;4975518;28;20048;-83
2022/09/03 12:44:34;;;;;;;1.30;0.88;;;30.00;58.10;;;;;;4975463;28;20054;-84
2022/09/03 12:47:23;;;;;;;1.05;0.70;;;29.90;58.40;;;;;;4988779;28;20461;-81
2022/09/03 12:49:57;;;;;;;1.42;1.10;;;29.80;57.70;;;;;;4975079;28;20052;-82
2022/09/03 12:52:35;;;;;;;2.80;1.00;;;29.70;58.40;;;;;;4975478;28;20054;-82
2022/09/03 12:55:07;;;;;;;1.98;0.93;;;29.60;58.20;;;;;;4975355;28;20047;-82
2022/09/03 12:57:48;;;;;;;0.73;0.70;;;29.60;58.40;;;;;;4958227;28;20117;-82
2022/09/03 13:00:17;;;;;;;2.35;0.98;;;29.70;59.50;;;;;;5003744;28;20481;-83
2022/09/03 13:02:52;;;;;;;0.70;0.70;;;29.50;57.70;;;;;;4975438;28;20057;-83
2022/09/03 13:05:23;;;;;;;1.00;0.90;;;29.30;58.80;;;;;;4975145;28;20055;-87
2022/09/03 13:07:54;;;;;;;0.93;0.82;;;28.90;58.60;;;;;;4974861;28;20413;-87
2022/09/03 13:10:27;;;;;;;1.30;0.73;;;29.10;58.30;;;;;;4973978;28;20066;-87
2022/09/03 13:13:02;;;;;;;1.17;0.85;;;29.50;59.80;;;;;;4955135;29;20054;-87
2022/09/03 13:15:29;;;;;;;1.67;1.27;;;29.30;58.90;;;;;;4959331;28;20493;-86
2022/09/03 13:18:12;;;;;;;1.02;0.70;;;29.30;58.30;;;;;;5006739;28;20317;-86
2022/09/03 13:21:05;;;;;;;2.95;0.90;;;29.20;57.70;;;;;;4990153;28;20053;-83